Puerto Banus, Marbella

>

This is an optional block (switch it off / on) in the settings - file ($SITE['banners'] = false;)

You can display ads, any other important text or photo’s using text / html or PHP code.

You can place one or more at the top and or bottom and it can all be different for content / size .



Meteosat more information blitzortung!


Radar lluvias  rain snow radar


Visita nuestra red de sitios de meteo:

Documentation for the template used

MeteoibericaRed estaciones Meteorologicas

MeteoclimaticRed estaciones Meteorologicas



Sin Advertencias climatologicas .En este momento tenemos Nivel Verde.    No hay Alarmas

Pagina Historial Weather Underground texto

Diario Resumen January 4, 2018 Unidades:  impérial    Métrico   Tanto
« Anterior Dia
Siguiente Dia »
Diario Semana Mensual Anual Personalizada
  Maxima: Minima: Media:
Temperatura: 62.8 °F 52.2 °F 57.7 °F
Punto de rocío: 57.4 °F 45.3 °F 50.9 °F
Humedad: 88 % 62 % 78 %
Velocidad del Viento: 10.4 mph 0 mph 3.5 mph
Ráfagas de viento: 10.4 mph - -
Viento:- - SW
Pression baro: 30.4 in 30.2 in -
Précipitaciones: 0 in    
Historical Graphs
 
 
Datos de tabla para January 4, 2018
Tiempo Temperatura Punto de rocío Pression baro Viento Velocidad del Viento Ráfagas de viento Humedad Las precipitaciones Rate ( Hora )
00:03 60.6 °F 49.6 °F 30.4 in North 3 mph 3 mph 67 % 0 in
00:04 60.4 °F 49.5 °F 30.4 in North 3.5 mph 3.5 mph 67 % 0 in
00:09 60.3 °F 49.3 °F 30.4 in North 5.8 mph 5.8 mph 67 % 0 in
00:11 60.3 °F 49.3 °F 30.4 in North 8.1 mph 8.1 mph 67 % 0 in
00:16 60.1 °F 48.9 °F 30.4 in North 5.8 mph 5.8 mph 67 % 0 in
00:20 59.9 °F 48.9 °F 30.4 in North 5.8 mph 5.8 mph 67 % 0 in
00:21 59.9 °F 48.9 °F 30.4 in North 5.8 mph 5.8 mph 67 % 0 in
00:26 59.7 °F 48.7 °F 30.4 in NNW 3.5 mph 3.5 mph 67 % 0 in
00:27 59.7 °F 48.7 °F 30.4 in NNW 3.5 mph 3.5 mph 67 % 0 in
00:32 59.5 °F 48.6 °F 30.4 in NNW 3.5 mph 3.5 mph 67 % 0 in
00:33 59.5 °F 48.6 °F 30.4 in NNW 3.5 mph 3.5 mph 67 % 0 in
00:37 59.5 °F 48.6 °F 30.4 in North 4.6 mph 4.6 mph 67 % 0 in
00:42 59.4 °F 48.4 °F 30.4 in NNW 3.5 mph 3.5 mph 67 % 0 in
00:43 59.4 °F 48.4 °F 30.4 in NNW 3.5 mph 3.5 mph 67 % 0 in
00:45 59.4 °F 48 °F 30.4 in North 2 mph 5 mph 66 % 0 in
00:49 59.7 °F 47.1 °F 30.4 in NNW 4 mph 4 mph 63 % 0 in
00:54 59.7 °F 46.8 °F 30.4 in NNW 4.6 mph 4.6 mph 62 % 0 in
01:06 59 °F 46.8 °F 30.4 in North 5 mph 5 mph 64 % 0 in
01:07 59 °F 46.8 °F 30.4 in North 6 mph 6 mph 64 % 0 in
01:13 59 °F 46.4 °F 30.4 in NNW 3.5 mph 3.5 mph 63 % 0 in
01:15 59.2 °F 46 °F 30.4 in NNW 2.3 mph 2.3 mph 62 % 0 in
01:19 59.2 °F 46.6 °F 30.4 in Calm     63 % 0 in
01:24 59.2 °F 46.6 °F 30.4 in NNW 1.2 mph 1.2 mph 63 % 0 in
01:27 59.2 °F 46 °F 30.4 in NNW 1.2 mph 1.2 mph 62 % 0 in
01:31 59.2 °F 46.9 °F 30.4 in NNW 3.5 mph 3.5 mph 64 % 0 in
01:32 59.2 °F 47.3 °F 30.4 in NNW 3.5 mph 3.5 mph 65 % 0 in
01:34 59 °F 47.1 °F 30.4 in NNW 2.3 mph 2.3 mph 65 % 0 in
01:38 58.6 °F 46.6 °F 30.3 in NNW 3.5 mph 3.5 mph 64 % 0 in
01:39 58.6 °F 46.6 °F 30.3 in NNW 3.5 mph 3.5 mph 64 % 0 in
01:41 58.6 °F 46.6 °F 30.3 in NNW 3.5 mph 3.5 mph 64 % 0 in
01:48 58.5 °F 46.2 °F 30.3 in NNW 3.5 mph 3.5 mph 64 % 0 in
01:49 58.5 °F 46.8 °F 30.3 in NNW 3.5 mph 3.5 mph 65 % 0 in
01:54 58.5 °F 47.5 °F 30.3 in NNW 2.3 mph 2.3 mph 67 % 0 in
01:55 58.5 °F 47.8 °F 30.3 in Calm     68 % 0 in
02:00 58.5 °F 47.8 °F 30.3 in NNW 1 mph 3 mph 68 % 0 in
02:01 58.3 °F 47.7 °F 30.3 in NNW 3.5 mph 3.5 mph 68 % 0 in
02:06 57.9 °F 47.8 °F 30.3 in NNW 4 mph 4 mph 69 % 0 in
02:08 57.7 °F 47.3 °F 30.3 in NNW 3.5 mph 3.5 mph 68 % 0 in
02:13 57.6 °F 46.8 °F 30.3 in NNW 3.5 mph 3.5 mph 67 % 0 in
02:16 57.4 °F 46.6 °F 30.3 in NNW 4.6 mph 4.6 mph 67 % 0 in
02:19 57 °F 46.2 °F 30.3 in North 4.6 mph 4.6 mph 67 % 0 in
02:20 56.8 °F 46 °F 30.3 in North 5.8 mph 5.8 mph 67 % 0 in
02:25 56.7 °F 45.9 °F 30.3 in North 4.6 mph 4.6 mph 67 % 0 in
02:26 56.7 °F 45.9 °F 30.3 in North 4.6 mph 4.6 mph 67 % 0 in
02:31 56.7 °F 45.9 °F 30.3 in North 5 mph 5 mph 67 % 0 in
02:33 56.5 °F 45.7 °F 30.3 in North 5 mph 5 mph 67 % 0 in
02:36 55.9 °F 45.5 °F 30.3 in North 4.6 mph 4.6 mph 68 % 0 in
02:38 55.8 °F 45.3 °F 30.3 in North 5 mph 5 mph 68 % 0 in
02:41 55.6 °F 45.5 °F 30.3 in North 4.6 mph 4.6 mph 69 % 0 in
02:46 55.6 °F 46 °F 30.3 in North 5.8 mph 5.8 mph 70 % 0 in
02:47 55.6 °F 46 °F 30.3 in North 6 mph 6 mph 70 % 0 in
02:52 55.6 °F 45.9 °F 30.3 in NNW 6.9 mph 6.9 mph 70 % 0 in
02:58 55.6 °F 46.2 °F 30.3 in NNW 5 mph 5 mph 71 % 0 in
03:02 55.8 °F 46.6 °F 30.3 in NNW 5.8 mph 5.8 mph 71 % 0 in
03:04 55.9 °F 46.6 °F 30.3 in NNW 3.5 mph 3.5 mph 71 % 0 in
03:09 55.9 °F 46.8 °F 30.3 in Calm     71 % 0 in
03:11 55.9 °F 46.2 °F 30.3 in NNW 2.3 mph 2.3 mph 70 % 0 in
03:16 55.9 °F 46.2 °F 30.3 in North 5 mph 5 mph 70 % 0 in
03:19 55.6 °F 45.9 °F 30.3 in North 2.3 mph   70 % 0 in
03:24 55 °F 45.3 °F 30.3 in North 5.8 mph 5.8 mph 70 % 0 in
03:25 55 °F 45.3 °F 30.3 in North 5 mph 6 mph 70 % 0 in
03:29 54.3 °F 45.7 °F 30.3 in North 4 mph 4.1 mph 72 % 0 in
03:35 54.3 °F 45.9 °F 30.3 in North 4.6 mph 4.6 mph 73 % 0 in
03:40 54.9 °F 46.8 °F 30.3 in NNW 5.8 mph 5.8 mph 74 % 0 in
03:45 55 °F 46.6 °F 30.3 in NNW 2.3 mph 2.3 mph 73 % 0 in
03:46 55 °F 46.6 °F 30.3 in NNW 3.5 mph 3.5 mph 73 % 0 in
03:51 55 °F 46.6 °F 30.3 in NNW 4 mph 4 mph 73 % 0 in
03:53 54.9 °F 46.4 °F 30.3 in North 5 mph 5 mph 73 % 0 in
03:56 55 °F 46.6 °F 30.3 in NNW 5.8 mph 5.8 mph 73 % 0 in
03:59 55 °F 46.6 °F 30.3 in NNW 3.5 mph 3.5 mph 73 % 0 in
04:04 54.9 °F 45.9 °F 30.3 in NNW 3.5 mph 3.5 mph 72 % 0 in
04:09 54.7 °F 46.6 °F 30.3 in NNW 3.5 mph 3.5 mph 74 % 0 in
04:11 54.9 °F 46.8 °F 30.3 in NNW 2.3 mph 2.3 mph 74 % 0 in
04:16 55 °F 46.9 °F 30.3 in NNW 3.5 mph 3.5 mph 74 % 0 in
04:18 55.2 °F 47.5 °F 30.3 in NNW 3.5 mph 3.5 mph 75 % 0 in
04:21 55.2 °F 47.1 °F 30.3 in NNW 2.3 mph 2.3 mph 74 % 0 in
04:25 55.6 °F 47.3 °F 30.3 in NNW 2.3 mph 2.3 mph 74 % 0 in
04:30 55.8 °F 47.5 °F 30.3 in NNW 2.3 mph 2.3 mph 74 % 0 in
04:31 55.8 °F 47.5 °F 30.3 in Calm     74 % 0 in
04:36 55.6 °F 46.9 °F 30.3 in NNW 1 mph 1 mph 73 % 0 in
04:37 55.4 °F 46.9 °F 30.3 in NNW 2 mph 2 mph 73 % 0 in
04:42 54.9 °F 46.2 °F 30.3 in NNW 4.6 mph 4.6 mph 73 % 0 in
04:43 54.7 °F 46.2 °F 30.3 in NNW 3.5 mph 3.7 mph 73 % 0 in
04:45 54.7 °F 46 °F 30.3 in North 3.5 mph 3.5 mph 73 % 0 in
04:49 54.3 °F 46.2 °F 30.3 in North 3.5 mph 3.5 mph 74 % 0 in
04:51 54.3 °F 46.2 °F 30.3 in North 3 mph 3 mph 74 % 0 in
04:56 54.3 °F 46.6 °F 30.3 in North 3.5 mph 3.5 mph 75 % 0 in
05:00 54.3 °F 46.6 °F 30.3 in Calm     75 % 0 in
05:01 54.3 °F 46.6 °F 30.3 in North 2.3 mph 2.3 mph 75 % 0 in
05:07 54.7 °F 46.9 °F 30.3 in North 3.5 mph 3.5 mph 75 % 0 in
05:08 54.7 °F 46.9 °F 30.3 in NNW 3.5 mph 3.5 mph 75 % 0 in
05:12 54.7 °F 46.9 °F 30.3 in NNW 1.2 mph   75 % 0 in
05:13 54.7 °F 46.9 °F 30.3 in Calm   0.1 mph 75 % 0 in
05:14 54.7 °F 46.9 °F 30.3 in Calm   0.1 mph 75 % 0 in
05:15 54.7 °F 46.9 °F 30.3 in Calm     75 % 0 in
05:16 54.9 °F 46.9 °F 30.3 in Calm   0.3 mph 75 % 0 in
05:17 54.9 °F 46.9 °F 30.3 in Calm   0.3 mph 75 % 0 in
05:18 54.9 °F 46.9 °F 30.3 in Calm     75 % 0 in
05:19 54.9 °F 46.9 °F 30.3 in Calm     75 % 0 in
05:24 55 °F 47.7 °F 30.3 in NNW 3.5 mph 3.5 mph 76 % 0 in
05:29 55.4 °F 48 °F 30.3 in NNW 3.5 mph 3.5 mph 76 % 0 in
05:30 55.4 °F 48 °F 30.3 in NNW 4.6 mph 4.6 mph 76 % 0 in
05:35 54.7 °F 46.8 °F 30.3 in North 5.8 mph 5.8 mph 75 % 0 in
05:38 54 °F 46.2 °F 30.3 in North 5 mph 5 mph 75 % 0 in
05:39 53.8 °F 46 °F 30.3 in North 5 mph 5 mph 75 % 0 in
05:43 53.8 °F 46.2 °F 30.3 in NNW 2.3 mph 2.3 mph 76 % 0 in
05:44 53.8 °F 46.2 °F 30.3 in NNW 3 mph 3 mph 76 % 0 in
05:46 53.8 °F 46.8 °F 30.3 in North 3.5 mph 3.5 mph 77 % 0 in
05:48 53.8 °F 46.8 °F 30.3 in North 3.5 mph 3.5 mph 77 % 0 in
05:51 53.8 °F 46.8 °F 30.3 in NNW 4 mph 4 mph 77 % 0 in
05:52 53.8 °F 46.8 °F 30.3 in NNW 4.6 mph 4.6 mph 77 % 0 in
05:56 53.8 °F 46.8 °F 30.3 in North 4.6 mph 4.6 mph 77 % 0 in
05:57 53.8 °F 46.8 °F 30.3 in North 3.5 mph 3.5 mph 77 % 0 in
06:02 54.1 °F 47.5 °F 30.3 in Calm     78 % 0 in
06:07 54.5 °F 47.5 °F 30.3 in North 3.5 mph 3.5 mph 77 % 0 in
06:12 54.7 °F 47.5 °F 30.3 in North 3.5 mph 3.5 mph 77 % 0 in
06:17 54.7 °F 47.1 °F 30.3 in NNW 4 mph 4 mph 76 % 0 in
06:22 53.2 °F 45.9 °F 30.3 in North 5.8 mph 5.8 mph 76 % 0 in
06:25 52.7 °F 45.7 °F 30.3 in North 5 mph 5 mph 77 % 0 in
06:29 52.2 °F 45.9 °F 30.3 in North 4.6 mph 4.6 mph 79 % 0 in
06:30 52.2 °F 45.9 °F 30.3 in North 4.6 mph 4.6 mph 79 % 0 in
06:32 52.3 °F 46 °F 30.3 in North 3.5 mph 3.5 mph 79 % 0 in
06:33 52.3 °F 46.2 °F 30.3 in North 4.6 mph 4.6 mph 80 % 0 in
06:37 52.3 °F 46.2 °F 30.3 in NNW 3.5 mph 3.5 mph 80 % 0 in
06:41 52.5 °F 46.9 °F 30.3 in NNW 4.6 mph 4.6 mph 81 % 0 in
06:42 52.7 °F 46.9 °F 30.3 in NNW 3.5 mph 3.5 mph 81 % 0 in
06:47 53.1 °F 47.5 °F 30.3 in NNW 3.5 mph 3.5 mph 81 % 0 in
06:51 53.6 °F 47.8 °F 30.3 in NNW 3.5 mph 3.5 mph 81 % 0 in
06:55 54 °F 47.5 °F 30.3 in NNW 5 mph 5 mph 79 % 0 in
06:59 54 °F 47.5 °F 30.3 in NNW 3.5 mph 3.5 mph 79 % 0 in
07:01 54 °F 47.5 °F 30.3 in NNW 3.5 mph 3.5 mph 79 % 0 in
07:03 54 °F 47.5 °F 30.3 in NNW 2.3 mph 2.3 mph 79 % 0 in
07:08 54 °F 47.1 °F 30.3 in NNW 3.5 mph 3.5 mph 78 % 0 in
07:13 53.6 °F 46.9 °F 30.3 in North 3.5 mph 3.5 mph 78 % 0 in
07:14 53.2 °F 46.6 °F 30.3 in North 3.5 mph 3.5 mph 78 % 0 in
07:19 53.1 °F 46.8 °F 30.3 in Calm     79 % 0 in
07:20 53.1 °F 46.8 °F 30.3 in Calm     79 % 0 in
07:25 52.9 °F 46.6 °F 30.3 in North 1.2 mph   79 % 0 in
07:27 52.9 °F 46.6 °F 30.3 in North 2.3 mph 2.3 mph 79 % 0 in
07:28 52.9 °F 46.6 °F 30.3 in North 2.3 mph 2.3 mph 79 % 0 in
07:31 53.1 °F 46.8 °F 30.3 in North 3.5 mph 3.5 mph 79 % 0 in
07:33 53.1 °F 46.8 °F 30.3 in North 3.5 mph 3.5 mph 79 % 0 in
07:34 53.1 °F 47.1 °F 30.3 in North 3.5 mph 3.5 mph 80 % 0 in
07:39 53.4 °F 47.5 °F 30.3 in North 1.2 mph 1.2 mph 80 % 0 in
07:40 53.4 °F 47.5 °F 30.3 in North 2 mph 2 mph 80 % 0 in
07:41 53.4 °F 46.9 °F 30.3 in North 2 mph 2.1 mph 79 % 0 in
07:45 53.2 °F 47.3 °F 30.3 in North 3.5 mph 3.5 mph 80 % 0 in
07:46 53.2 °F 47.3 °F 30.3 in North 3 mph 3 mph 80 % 0 in
07:47 53.2 °F 47.1 °F 30.3 in North 3.5 mph 3.5 mph 80 % 0 in
07:52 53.1 °F 46.9 °F 30.3 in North 5 mph 5 mph 80 % 0 in
07:53 52.9 °F 46.9 °F 30.3 in North 4.6 mph 4.6 mph 80 % 0 in
07:54 52.9 °F 46.8 °F 30.3 in North 5 mph 5 mph 80 % 0 in
07:58 52.7 °F 46.9 °F 30.3 in North 4 mph 4 mph 81 % 0 in
08:00 52.7 °F 46.9 °F 30.3 in North 5 mph 5 mph 81 % 0 in
08:05 52.5 °F 46.9 °F 30.3 in North 3.5 mph 3.5 mph 81 % 0 in
08:07 52.5 °F 46.9 °F 30.3 in North 1.2 mph   81 % 0 in
08:13 53.1 °F 47.7 °F 30.3 in North 4 mph 4 mph 82 % 0 in
08:15 53.1 °F 47.7 °F 30.3 in North 3.5 mph 3.5 mph 82 % 0 in
08:17 53.1 °F 47.3 °F 30.3 in North 3.5 mph 3.5 mph 81 % 0 in
08:19 53.1 °F 47.7 °F 30.3 in North 3.5 mph 3.5 mph 82 % 0 in
08:21 53.1 °F 47.5 °F 30.3 in North 2.3 mph 2.3 mph 81 % 0 in
08:26 53.2 °F 47.5 °F 30.3 in North 2.3 mph 2.3 mph 81 % 0 in
08:31 53.2 °F 47.5 °F 30.3 in North 3.5 mph 3.5 mph 81 % 0 in
08:32 53.2 °F 47.7 °F 30.3 in North 2.3 mph 2.3 mph 81 % 0 in
08:37 53.2 °F 47.7 °F 30.3 in North 2.3 mph 2.3 mph 81 % 0 in
08:39 53.2 °F 47.7 °F 30.3 in North 2.3 mph 2.3 mph 81 % 0 in
08:42 53.2 °F 47.3 °F 30.3 in North 2 mph 2 mph 80 % 0 in
08:44 53.2 °F 47.1 °F 30.3 in North 2.3 mph 2.3 mph 80 % 0 in
08:46 53.2 °F 47.1 °F 30.3 in North 2.3 mph 2.3 mph 80 % 0 in
08:49 53.2 °F 47.1 °F 30.3 in North 2.3 mph 2.3 mph 80 % 0 in
08:53 53.2 °F 47.1 °F 30.3 in Calm     80 % 0 in
08:56 53.2 °F 47.3 °F 30.3 in Calm     80 % 0 in
09:01 53.4 °F 47.5 °F 30.3 in North 2.3 mph 2.3 mph 80 % 0 in
09:02 53.4 °F 47.5 °F 30.3 in North 2.3 mph 2.3 mph 80 % 0 in
09:04 53.6 °F 47.7 °F 30.3 in North 2.3 mph 2.3 mph 80 % 0 in
09:06 53.8 °F 47.8 °F 30.3 in North 1.2 mph 1.2 mph 80 % 0 in
09:08 54 °F 47.8 °F 30.3 in North 1.2 mph   80 % 0 in
09:13 54.3 °F 48.4 °F 30.3 in North 2.3 mph 2.3 mph 80 % 0 in
09:18 54.7 °F 48.6 °F 30.3 in North 1.2 mph 1.2 mph 80 % 0 in
09:19 54.7 °F 48.6 °F 30.3 in North 1.2 mph 1.2 mph 80 % 0 in
09:23 55 °F 48.9 °F 30.3 in North 2.3 mph 2.3 mph 80 % 0 in
09:24 55 °F 48.9 °F 30.3 in North 1.2 mph 1.2 mph 80 % 0 in
09:26 55 °F 48.7 °F 30.3 in Calm     79 % 0 in
09:27 55 °F 48.7 °F 30.3 in Calm     79 % 0 in
09:30 55.2 °F 48.7 °F 30.3 in Calm     79 % 0 in
09:33 55.2 °F 48.9 °F 30.3 in North 2.3 mph 2.3 mph 79 % 0 in
09:36 55.6 °F 49.3 °F 30.3 in North 2.3 mph 2.3 mph 79 % 0 in
09:38 55.8 °F 48.9 °F 30.3 in Calm     78 % 0 in
09:42 55.8 °F 48.9 °F 30.3 in North 3.5 mph 3.5 mph 78 % 0 in
09:47 55.4 °F 48.4 °F 30.3 in North 3.5 mph 3.5 mph 77 % 0 in
09:48 55.4 °F 48.4 °F 30.3 in North 3.5 mph 3.5 mph 77 % 0 in
09:52 55.2 °F 48.2 °F 30.3 in North 2.3 mph 2.3 mph 77 % 0 in
09:55 55.4 °F 48.4 °F 30.3 in North 2.3 mph 2.3 mph 77 % 0 in
09:59 55.6 °F 48.4 °F 30.3 in North 2.3 mph 2.3 mph 77 % 0 in
10:01 55.8 °F 48.6 °F 30.3 in North 2.3 mph 2.3 mph 77 % 0 in
10:06 55.9 °F 48.4 °F 30.3 in Calm     76 % 0 in
10:11 56.3 °F 48.7 °F 30.3 in Calm     76 % 0 in
10:16 56.8 °F 49.5 °F 30.3 in Calm     76 % 0 in
10:20 57.4 °F 49.6 °F 30.3 in Calm     75 % 0 in
10:21 57.7 °F 49.8 °F 30.3 in Calm     75 % 0 in
10:25 58.3 °F 50 °F 30.3 in Calm     74 % 0 in
10:30 58.5 °F 50.4 °F 30.3 in Calm   1 mph 74 % 0 in
10:31 58.8 °F 50.9 °F 30.3 in North 1.2 mph 1.2 mph 75 % 0 in
10:36 59.2 °F 51.3 °F 30.3 in North 2.3 mph 2.3 mph 75 % 0 in
10:37 59.2 °F 51.3 °F 30.3 in North 1.2 mph 1.2 mph 75 % 0 in
10:42 59.4 °F 51.4 °F 30.3 in North 2.3 mph 2.3 mph 75 % 0 in
10:43 59.4 °F 51.8 °F 30.3 in North 2.3 mph 2.3 mph 76 % 0 in
10:48 59.2 °F 51.4 °F 30.3 in North 3.5 mph 3.5 mph 76 % 0 in
10:50 59.2 °F 52 °F 30.3 in North 3.5 mph 3.5 mph 77 % 0 in
10:51 59.2 °F 52 °F 30.3 in North 3.5 mph 3.5 mph 77 % 0 in
10:57 58.8 °F 52.2 °F 30.4 in North 3.5 mph 3.5 mph 78 % 0 in
11:00 58.8 °F 52.3 °F 30.4 in NNE 3.5 mph 3.5 mph 79 % 0 in
11:05 58.6 °F 52.3 °F 30.4 in ENE 3.5 mph 3.6 mph 80 % 0 in
11:10 58.5 °F 52.5 °F 30.4 in East 6 mph 6 mph 81 % 0 in
11:12 58.3 °F 52.5 °F 30.4 in East 5.8 mph 5.8 mph 81 % 0 in
11:17 58.5 °F 52.9 °F 30.4 in East 7 mph 7 mph 82 % 0 in
11:18 58.5 °F 52.9 °F 30.4 in East 6.9 mph 6.9 mph 82 % 0 in
11:23 58.5 °F 53.2 °F 30.4 in East 5.8 mph 5.8 mph 83 % 0 in
11:28 58.3 °F 52.9 °F 30.4 in East 4.6 mph 4.6 mph 82 % 0 in
11:29 58.3 °F 52.9 °F 30.4 in East 4.6 mph 4.6 mph 82 % 0 in
11:32 58.3 °F 52.9 °F 30.4 in East 3.5 mph 3.5 mph 82 % 0 in
11:34 58.5 °F 52.9 °F 30.4 in East 4.6 mph 4.6 mph 82 % 0 in
11:39 58.6 °F 53.1 °F 30.4 in East 4.6 mph 4.6 mph 82 % 0 in
11:41 58.6 °F 53.2 °F 30.3 in East 5 mph 5 mph 82 % 0 in
11:44 58.8 °F 53.4 °F 30.3 in East 3.5 mph 3.5 mph 82 % 0 in
11:46 59.2 °F 53.6 °F 30.3 in East 4.6 mph 4.6 mph 82 % 0 in
11:47 59.2 °F 53.6 °F 30.3 in East 3.5 mph 3.5 mph 82 % 0 in
11:51 59.2 °F 53.2 °F 30.3 in East 2.3 mph 2.3 mph 81 % 0 in
11:52 59 °F 53.2 °F 30.3 in East 2.3 mph 2.3 mph 81 % 0 in
11:57 59.2 °F 53.2 °F 30.3 in East 2.3 mph 2.3 mph 81 % 0 in
11:58 59.2 °F 53.2 °F 30.3 in East 3.5 mph 3.5 mph 81 % 0 in
12:03 58.8 °F 53.1 °F 30.3 in East 3.5 mph 3.5 mph 81 % 0 in
12:06 58.8 °F 53.1 °F 30.3 in East 3.5 mph 3.5 mph 81 % 0 in
12:11 58.8 °F 53.1 °F 30.3 in East 3.5 mph 3.5 mph 81 % 0 in
12:12 58.8 °F 53.1 °F 30.3 in East 4.6 mph 4.6 mph 81 % 0 in
12:18 58.8 °F 53.1 °F 30.3 in East 3.5 mph 3.5 mph 81 % 0 in
12:19 58.8 °F 53.4 °F 30.3 in East 2.3 mph 2.3 mph 82 % 0 in
12:24 59 °F 53.4 °F 30.3 in East 3.5 mph 3.5 mph 82 % 0 in
12:29 59 °F 53.4 °F 30.3 in East 2.3 mph 2.3 mph 82 % 0 in
12:30 59 °F 53.4 °F 30.3 in East 1 mph 3 mph 82 % 0 in
12:35 59.2 °F 53.8 °F 30.3 in East 2 mph 3 mph 82 % 0 in
12:37 59.4 °F 53.8 °F 30.3 in East 3.5 mph 3.5 mph 82 % 0 in
12:42 59.4 °F 54 °F 30.3 in East 3.5 mph 3.5 mph 82 % 0 in
12:44 59.4 °F 53.8 °F 30.3 in East 4.6 mph 4.6 mph 82 % 0 in
12:47 59.2 °F 53.4 °F 30.3 in East 3.5 mph 3.5 mph 81 % 0 in
12:51 59.2 °F 53.2 °F 30.3 in East 3.5 mph 3.5 mph 81 % 0 in
12:53 59.2 °F 53.2 °F 30.3 in East 5 mph 5 mph 81 % 0 in
12:57 59.2 °F 53.2 °F 30.3 in ENE 4 mph 4 mph 81 % 0 in
12:58 59.2 °F 53.2 °F 30.3 in ENE 3.5 mph 3.5 mph 81 % 0 in
13:03 59.2 °F 53.2 °F 30.3 in ENE 3.5 mph 3.5 mph 81 % 0 in
13:08 59.4 °F 53.8 °F 30.3 in ENE 2.3 mph 2.3 mph 82 % 0 in
13:10 59.4 °F 53.6 °F 30.3 in ENE 2.3 mph 2.3 mph 81 % 0 in
13:15 59.4 °F 53.4 °F 30.3 in ENE 3.5 mph 3.5 mph 81 % 0 in
13:20 59.4 °F 54 °F 30.3 in ENE 3.5 mph 3.5 mph 82 % 0 in
13:21 59.4 °F 54 °F 30.3 in ENE 3.5 mph 3.5 mph 82 % 0 in
13:22 59.4 °F 54 °F 30.3 in ENE 3.5 mph 3.5 mph 82 % 0 in
13:27 59.5 °F 54 °F 30.3 in ENE 3.5 mph 3.5 mph 82 % 0 in
13:28 59.5 °F 54 °F 30.3 in ENE 3.5 mph 3.5 mph 82 % 0 in
13:33 59.5 °F 54 °F 30.3 in ENE 3.5 mph 3.5 mph 82 % 0 in
13:35 59.5 °F 54.1 °F 30.3 in ENE 3.5 mph 3.5 mph 82 % 0 in
13:36 59.5 °F 54.1 °F 30.3 in ENE 3.5 mph 3.5 mph 82 % 0 in
13:41 59.5 °F 54.3 °F 30.3 in ENE 3.5 mph 3.5 mph 83 % 0 in
13:45 59.7 °F 54.5 °F 30.3 in ENE 3.5 mph 3.5 mph 83 % 0 in
13:47 59.7 °F 54.7 °F 30.3 in ENE 3.5 mph 3.5 mph 83 % 0 in
13:50 59.9 °F 54.7 °F 30.3 in ENE 2.3 mph 2.3 mph 83 % 0 in
13:51 59.9 °F 54.7 °F 30.3 in ENE 2.3 mph 2.3 mph 83 % 0 in
13:53 59.9 °F 54.7 °F 30.3 in ENE 2.3 mph 2.3 mph 83 % 0 in
13:58 60.3 °F 55 °F 30.3 in ENE 1.2 mph   83 % 0 in
13:59 60.3 °F 55 °F 30.3 in ENE 1 mph 1 mph 83 % 0 in
14:04 60.3 °F 55 °F 30.3 in ENE 3.5 mph 3.5 mph 83 % 0 in
14:09 60.1 °F 54.9 °F 30.3 in ENE 3.5 mph 3.5 mph 83 % 0 in
14:10 60.1 °F 54.9 °F 30.3 in ENE 3.5 mph 3.5 mph 83 % 0 in
14:12 60.1 °F 54.9 °F 30.3 in ENE 2.3 mph 2.3 mph 83 % 0 in
14:17 60.1 °F 54.7 °F 30.3 in ENE 3.5 mph 3.5 mph 82 % 0 in
14:22 60.3 °F 54.7 °F 30.3 in ENE 3.5 mph 3.5 mph 82 % 0 in
14:27 60.3 °F 54.3 °F 30.3 in ENE 3.5 mph 3.5 mph 81 % 0 in
14:28 60.3 °F 54.3 °F 30.3 in ENE 3.5 mph 3.5 mph 81 % 0 in
14:30 60.3 °F 54.3 °F 30.3 in ENE 3.5 mph 3.5 mph 81 % 0 in
14:35 60.3 °F 54.9 °F 30.3 in ENE 3.5 mph 3.5 mph 82 % 0 in
14:40 60.4 °F 54.9 °F 30.3 in ENE 3.5 mph 3.5 mph 82 % 0 in
14:41 60.3 °F 54.9 °F 30.3 in ENE 3.5 mph 3.5 mph 82 % 0 in
14:46 60.3 °F 54.9 °F 30.3 in ENE 3.5 mph 3.5 mph 82 % 0 in
14:47 60.3 °F 54.9 °F 30.3 in ENE 3.5 mph 3.5 mph 82 % 0 in
14:52 60.4 °F 54.9 °F 30.3 in ENE 3.5 mph 3.5 mph 82 % 0 in
14:54 60.4 °F 55.2 °F 30.3 in ENE 3.5 mph 3.5 mph 83 % 0 in
14:58 60.3 °F 54.9 °F 30.2 in ENE 3.5 mph 3.5 mph 82 % 0 in
15:03 60.6 °F 55.4 °F 30.2 in ENE 2.3 mph 2.3 mph 83 % 0 in
15:04 60.6 °F 55.6 °F 30.2 in ENE 2.3 mph 2.3 mph 83 % 0 in
15:09 60.6 °F 55 °F 30.2 in ENE 3.5 mph 3.5 mph 82 % 0 in
15:14 60.6 °F 55.2 °F 30.2 in ENE 3 mph 3 mph 82 % 0 in
15:15 60.6 °F 55.2 °F 30.2 in ENE 3.5 mph 3.5 mph 82 % 0 in
15:20 60.6 °F 55.2 °F 30.2 in ENE 2.3 mph 2.3 mph 82 % 0 in
15:24 61 °F 55.6 °F 30.2 in Calm     82 % 0 in
15:28 61.2 °F 54.9 °F 30.2 in Calm     80 % 0 in
15:30 61.2 °F 54.5 °F 30.2 in Calm     79 % 0 in
15:35 61.3 °F 54.7 °F 30.2 in ENE 3.5 mph 3.5 mph 79 % 0 in
15:40 61.3 °F 54.7 °F 30.2 in ENE 3.5 mph 3.5 mph 79 % 0 in
15:45 61.2 °F 54.9 °F 30.2 in ENE 3.5 mph 3.5 mph 80 % 0 in
15:46 61.2 °F 54.9 °F 30.2 in ENE 4 mph 4 mph 80 % 0 in
15:48 61 °F 54.9 °F 30.2 in ENE 3.5 mph 3.6 mph 80 % 0 in
15:51 61 °F 55 °F 30.2 in ENE 3.5 mph 3.5 mph 81 % 0 in
15:56 60.6 °F 54.9 °F 30.2 in ENE 4.6 mph 4.6 mph 81 % 0 in
15:58 60.6 °F 54.9 °F 30.2 in ENE 4.6 mph 4.6 mph 81 % 0 in
16:03 60.6 °F 55 °F 30.2 in ENE 3.5 mph 3.5 mph 82 % 0 in
16:10 60.6 °F 55 °F 30.2 in ENE 4.6 mph 4.6 mph 82 % 0 in
16:15 60.6 °F 55.6 °F 30.2 in ENE 4.6 mph 4.6 mph 83 % 0 in
16:16 60.6 °F 55.4 °F 30.2 in ENE 5 mph 5 mph 83 % 0 in
16:21 60.6 °F 55 °F 30.2 in ENE 5 mph 5 mph 82 % 0 in
16:22 60.6 °F 55 °F 30.2 in ENE 4.6 mph 4.6 mph 82 % 0 in
16:23 60.6 °F 55.2 °F 30.2 in ENE 5 mph 5 mph 82 % 0 in
16:27 60.8 °F 55.2 °F 30.2 in ENE 6.9 mph 6.9 mph 82 % 0 in
16:28 61 °F 55.8 °F 30.2 in ENE 6.9 mph 6.9 mph 83 % 0 in
16:29 61.2 °F 56.1 °F 30.2 in ENE 6.9 mph 6.9 mph 84 % 0 in
16:34 61.2 °F 56.7 °F 30.2 in ENE 6.9 mph 6.9 mph 85 % 0 in
16:36 61.2 °F 56.7 °F 30.2 in ENE 6.9 mph 6.9 mph 85 % 0 in
16:41 61 °F 56.7 °F 30.2 in ENE 4.6 mph 4.6 mph 86 % 0 in
16:42 60.8 °F 56.7 °F 30.2 in ENE 5 mph 5 mph 86 % 0 in
16:44 60.8 °F 56.7 °F 30.2 in ENE 5 mph 5 mph 86 % 0 in
16:47 60.6 °F 56.5 °F 30.2 in ENE 4.6 mph 4.6 mph 86 % 0 in
16:49 60.6 °F 56.5 °F 30.2 in ENE 3.5 mph 3.5 mph 86 % 0 in
16:50 60.6 °F 56.5 °F 30.2 in ENE 4.6 mph 4.6 mph 86 % 0 in
16:55 60.4 °F 56.3 °F 30.2 in ENE 7 mph 7 mph 86 % 0 in
17:01 60.6 °F 56.5 °F 30.2 in ENE 7 mph 7 mph 86 % 0 in
17:06 60.8 °F 56.8 °F 30.2 in ENE 9.2 mph 9.2 mph 87 % 0 in
17:11 60.8 °F 56.8 °F 30.2 in ENE 8.1 mph 8.1 mph 87 % 0 in
17:14 60.8 °F 56.8 °F 30.2 in ENE 8.1 mph 8.1 mph 87 % 0 in
17:19 60.8 °F 57.2 °F 30.2 in ENE 8.1 mph 8.1 mph 88 % 0 in
17:23 61 °F 57.4 °F 30.2 in ENE 10.4 mph 10.4 mph 88 % 0 in
17:24 61 °F 57.4 °F 30.2 in East 10.4 mph 10.4 mph 88 % 0 in
17:27 61 °F 57.4 °F 30.2 in ENE 9.2 mph 9.2 mph 88 % 0 in
17:30 61 °F 57 °F 30.2 in NE 9.2 mph 9.2 mph 87 % 0 in
17:35 61.2 °F 57.2 °F 30.2 in ENE 10.4 mph 10.4 mph 87 % 0 in
17:39 61.2 °F 57.2 °F 30.2 in ENE 9.2 mph 9.2 mph 87 % 0 in
17:40 61 °F 57 °F 30.2 in ENE 9.2 mph 9.2 mph 87 % 0 in
17:45 61.2 °F 57.4 °F 30.2 in ENE 8.1 mph 8.1 mph 87 % 0 in
17:46 61.2 °F 57.4 °F 30.2 in ENE 8.1 mph 8.1 mph 87 % 0 in
17:51 61.3 °F 57.4 °F 30.2 in ENE 5 mph 5 mph 87 % 0 in
17:53 61.3 °F 57 °F 30.2 in ENE 5 mph 5 mph 86 % 0 in
17:57 61.3 °F 57.2 °F 30.2 in NE 4.6 mph 4.6 mph 86 % 0 in
17:58 61.3 °F 57.2 °F 30.2 in NE 4.6 mph 4.6 mph 86 % 0 in
17:59 61.3 °F 57.2 °F 30.2 in NE 4 mph 4 mph 86 % 0 in
18:04 61.5 °F 57.4 °F 30.2 in NE 4.6 mph 4.6 mph 86 % 0 in
18:06 61.5 °F 56.8 °F 30.2 in NE 3.5 mph 3.5 mph 85 % 0 in
18:11 61.7 °F 57 °F 30.2 in NE 2.3 mph 2.3 mph 85 % 0 in
18:12 61.9 °F 57.2 °F 30.2 in NE 3.5 mph 3.5 mph 85 % 0 in
18:17 61.9 °F 56.7 °F 30.2 in NE 2.3 mph 2.3 mph 83 % 0 in
18:22 62.1 °F 56.5 °F 30.2 in Calm     82 % 0 in
18:27 62.2 °F 56.5 °F 30.2 in Calm     81 % 0 in
18:29 62.4 °F 56.5 °F 30.2 in Calm     81 % 0 in
18:31 62.4 °F 56.7 °F 30.2 in Calm     81 % 0 in
18:34 62.6 °F 56.3 °F 30.2 in NE 3.5 mph 3.5 mph 80 % 0 in
18:35 62.8 °F 56.5 °F 30.2 in NE 3.5 mph 3.5 mph 80 % 0 in
18:41 62.8 °F 56.1 °F 30.2 in NE 2.3 mph 2.3 mph 79 % 0 in
18:42 62.8 °F 56.1 °F 30.2 in NE 2.3 mph 2.3 mph 79 % 0 in
18:48 62.6 °F 55.9 °F 30.2 in NE 3.5 mph 3.5 mph 79 % 0 in
18:53 62.4 °F 55.8 °F 30.2 in Calm     79 % 0 in
18:58 62.4 °F 55.8 °F 30.2 in Calm     79 % 0 in
19:00 62.4 °F 55.8 °F 30.2 in Calm     79 % 0 in
19:05 62.1 °F 55.6 °F 30.2 in Calm     79 % 0 in
19:07 62.1 °F 55.4 °F 30.2 in Calm     79 % 0 in
19:12 62.1 °F 55.8 °F 30.2 in Calm     80 % 0 in
19:16 62.1 °F 55.9 °F 30.2 in Calm     80 % 0 in
19:21 62.1 °F 55.8 °F 30.2 in NE 3.5 mph 3.5 mph 80 % 0 in
19:23 62.1 °F 55.8 °F 30.2 in NE 3.5 mph 3.5 mph 80 % 0 in
19:28 61.7 °F 55.6 °F 30.2 in NE 3.5 mph 3.5 mph 80 % 0 in
19:29 61.5 °F 55.4 °F 30.2 in NE 3.5 mph 3.5 mph 80 % 0 in
19:34 61.5 °F 55.6 °F 30.2 in NE 2.3 mph 2.3 mph 81 % 0 in
19:37 61.3 °F 55.6 °F 30.2 in NE 2.3 mph 2.3 mph 81 % 0 in
19:39 61.3 °F 55.4 °F 30.2 in NE 3.5 mph 3.5 mph 81 % 0 in
19:42 61.2 °F 55.2 °F 30.2 in NE 2.3 mph 2.3 mph 81 % 0 in
19:45 61.2 °F 55.2 °F 30.2 in NNE 4 mph 4 mph 81 % 0 in
19:48 61 °F 55 °F 30.2 in NNE 3.5 mph 3.5 mph 81 % 0 in
19:53 60.6 °F 54.9 °F 30.2 in NNE 3.5 mph 3.5 mph 81 % 0 in
19:54 60.6 °F 54.7 °F 30.2 in Calm     81 % 0 in
19:59 60.4 °F 54.3 °F 30.2 in NNE 3.5 mph 3.5 mph 80 % 0 in
20:01 60.4 °F 54.1 °F 30.2 in NNE 3 mph 3 mph 80 % 0 in
20:06 60.1 °F 53.8 °F 30.2 in North 4 mph 4 mph 80 % 0 in
20:11 59.9 °F 54.1 °F 30.2 in North 1.2 mph   81 % 0 in
20:13 60.1 °F 54.1 °F 30.2 in Calm     81 % 0 in
20:18 59.9 °F 54.1 °F 30.2 in North 3.5 mph 3.5 mph 81 % 0 in
20:19 59.7 °F 54 °F 30.2 in North 3.5 mph 3.5 mph 81 % 0 in
20:23 59.5 °F 53.8 °F 30.2 in North 4 mph 4 mph 81 % 0 in
20:24 59.5 °F 53.2 °F 30.2 in North 5 mph 5 mph 80 % 0 in
20:29 59 °F 53.2 °F 30.2 in NNW 4.6 mph 4.6 mph 81 % 0 in
20:32 58.8 °F 53.1 °F 30.2 in NNW 2.3 mph 2.3 mph 81 % 0 in
20:37 58.6 °F 52.9 °F 30.2 in NNW 2.3 mph 2.3 mph 81 % 0 in
20:38 58.6 °F 52.9 °F 30.2 in NNW 2.3 mph 2.3 mph 81 % 0 in
20:43 58.8 °F 53.2 °F 30.2 in Calm     82 % 0 in
20:44 58.8 °F 53.4 °F 30.2 in Calm     82 % 0 in
20:47 58.8 °F 53.4 °F 30.2 in NNW 3 mph 3 mph 82 % 0 in
20:51 58.8 °F 53.4 °F 30.2 in North 4 mph 4 mph 82 % 0 in
20:53 58.6 °F 53.2 °F 30.2 in North 3.5 mph 3.5 mph 82 % 0 in
20:58 58.6 °F 53.2 °F 30.2 in North 3.5 mph 3.5 mph 82 % 0 in
21:00 58.6 °F 53.4 °F 30.2 in North 3.5 mph 3.5 mph 83 % 0 in
21:05 58.6 °F 53.2 °F 30.2 in North 4 mph 4 mph 82 % 0 in
21:10 58.6 °F 53.2 °F 30.2 in North 3.5 mph 3.5 mph 82 % 0 in
21:11 58.6 °F 53.4 °F 30.2 in North 4 mph 4 mph 83 % 0 in
21:12 58.6 °F 53.1 °F 30.2 in North 6 mph 6 mph 82 % 0 in
21:16 58.6 °F 53.4 °F 30.2 in NNE 4.6 mph 4.6 mph 83 % 0 in
21:18 58.6 °F 53.4 °F 30.2 in NNE 3.5 mph 3.5 mph 83 % 0 in
21:23 58.6 °F 53.4 °F 30.2 in NNE 4.6 mph 4.6 mph 83 % 0 in
21:26 58.5 °F 52.9 °F 30.2 in North 5.8 mph 5.8 mph 82 % 0 in
21:31 58.5 °F 53.2 °F 30.2 in North 5 mph 5 mph 83 % 0 in
21:36 58.5 °F 53.4 °F 30.2 in North 3.5 mph 3.5 mph 83 % 0 in
21:38 58.5 °F 53.1 °F 30.2 in North 4 mph 4 mph 82 % 0 in
21:40 58.5 °F 53.1 °F 30.2 in North 3.5 mph 3.5 mph 82 % 0 in
21:44 58.5 °F 53.1 °F 30.2 in NNW 5.8 mph 5.8 mph 82 % 0 in
21:49 58.6 °F 52.3 °F 30.2 in North 4.6 mph 4.6 mph 80 % 0 in
21:54 58.6 °F 52.2 °F 30.2 in North 4 mph 4 mph 79 % 0 in
21:55 58.5 °F 52 °F 30.2 in North 3.5 mph 3.5 mph 79 % 0 in
22:01 58.6 °F 52 °F 30.2 in North 4.6 mph 4.6 mph 78 % 0 in
22:06 58.8 °F 51.6 °F 30.2 in North 4.6 mph 4.6 mph 77 % 0 in
22:09 59 °F 51.8 °F 30.2 in NNW 3.5 mph 3.5 mph 77 % 0 in
22:21 59.4 °F 51.4 °F 30.2 in NNW 3.5 mph 3.5 mph 75 % 0 in
22:28 59.4 °F 51.1 °F 30.2 in NNW 1.2 mph 1.2 mph 74 % 0 in
22:30 59.4 °F 51.1 °F 30.2 in NNW 1 mph 3 mph 74 % 0 in
22:31 59.4 °F 51.1 °F 30.2 in NNW 3.5 mph 3.5 mph 74 % 0 in
22:32 59.4 °F 51.1 °F 30.2 in NNW 3.5 mph 3.5 mph 74 % 0 in
22:34 59.4 °F 51.1 °F 30.2 in NNW 3.5 mph 3.5 mph 74 % 0 in
22:35 59.4 °F 51.1 °F 30.2 in NNW 3.5 mph 3.5 mph 74 % 0 in
22:36 59.5 °F 51.3 °F 30.2 in NNW 3.5 mph 3.5 mph 74 % 0 in
22:38 59.5 °F 51.3 °F 30.2 in NNW 3.5 mph 3.5 mph 74 % 0 in
22:42 59.5 °F 50.9 °F 30.2 in NW 3.5 mph 3.5 mph 73 % 0 in
22:43 59.5 °F 50.9 °F 30.2 in NW 3.5 mph 3.5 mph 73 % 0 in
22:44 59.5 °F 50.9 °F 30.2 in NW 4.6 mph 4.6 mph 73 % 0 in
22:47 59.7 °F 51.1 °F 30.2 in NW 4.6 mph 4.6 mph 73 % 0 in
22:48 59.7 °F 51.1 °F 30.2 in NW 4.6 mph 4.6 mph 73 % 0 in
22:49 59.7 °F 51.1 °F 30.2 in NW 4.6 mph 4.6 mph 73 % 0 in
22:50 59.7 °F 51.1 °F 30.2 in NW 5 mph 5 mph 73 % 0 in
22:52 59.7 °F 51.1 °F 30.2 in NW 5.8 mph 5.8 mph 73 % 0 in
22:53 59.5 °F 50.9 °F 30.2 in NW 3.5 mph 3.5 mph 73 % 0 in
22:57 59.4 °F 50.7 °F 30.2 in NW 3.5 mph 3.5 mph 73 % 0 in
23:01 58.6 °F 50.2 °F 30.2 in NW 3.5 mph 3.5 mph 73 % 0 in
23:07 58.1 °F 50.2 °F 30.2 in NNW 4.6 mph 4.6 mph 75 % 0 in
23:12 57.7 °F 50.2 °F 30.2 in NNW 5.8 mph 5.8 mph 76 % 0 in
23:17 57 °F 50 °F 30.2 in North 9.2 mph 9.2 mph 77 % 0 in
23:18 57 °F 50 °F 30.2 in North 9.2 mph 9.2 mph 77 % 0 in
23:23 56.8 °F 50 °F 30.2 in North 6.9 mph 6.9 mph 78 % 0 in
23:28 56.7 °F 49.8 °F 30.2 in North 5.8 mph 5.8 mph 78 % 0 in
23:33 56.7 °F 49.8 °F 30.2 in NNW 6 mph 6 mph 78 % 0 in
23:34 56.7 °F 49.8 °F 30.2 in NNW 4.6 mph 4.6 mph 78 % 0 in
23:39 56.7 °F 50.2 °F 30.2 in North 4.6 mph 4.6 mph 79 % 0 in
23:41 56.5 °F 50.2 °F 30.2 in North 5.8 mph 5.8 mph 79 % 0 in
23:46 56.5 °F 50 °F 30.2 in North 5.8 mph 5.8 mph 79 % 0 in
23:47 56.5 °F 50 °F 30.2 in North 5.8 mph 5.8 mph 79 % 0 in
23:52 56.3 °F 49.8 °F 30.2 in NNW 5 mph 5 mph 79 % 0 in
23:55 56.1 °F 49.8 °F 30.2 in North 3.5 mph 3.5 mph 79 % 0 in
Puerto Banus, Marbella
Elogios de Weather Underground - 2.25 mb

Guión original por  Jim McMurry - jmcmurry@mwt.net Adaptado para la plantilla por  Wim van der Kuil - Leuven-Template.eu

Usted encontrará nuestra información del tiempo también en:

Weather Underground

Iberian Peninsula Weather Network